Time;durP1;ratioP1;P1;durP2;ratioP2;P2;SDS_P1;SDS_P2;PMS_P1;PMS_P2;Temp;Humidity;BMP_temperature;BMP_pressure;BME280_temperature;BME280_humidity;BME280_pressure;Samples;Min_cycle;Max_cycle;Signal;HPM_P1;HPM_P2
2022/12/27 00:00:50;;;;;;;9.60;3.13;;;;;;;;;;5066194;28;20501;-82
2022/12/27 00:03:15;;;;;;;7.10;2.63;;;;;;;;;;5063110;28;20024;-82
2022/12/27 00:05:42;;;;;;;5.57;2.72;;;;;;;;;;5069152;28;20028;-81
2022/12/27 00:08:08;;;;;;;6.50;2.75;;;;;;;;;;5068107;28;20024;-82
2022/12/27 00:10:34;;;;;;;6.47;2.60;;;;;;;;;;5071303;28;20047;-82
2022/12/27 00:13:00;;;;;;;7.35;3.03;;;;;;;;;;5068037;28;20032;-82
2022/12/27 00:15:25;;;;;;;6.85;2.65;;;;;;;;;;5067652;28;20469;-81
2022/12/27 00:17:50;;;;;;;5.55;2.60;;;;;;;;;;5075592;28;20456;-81
2022/12/27 00:20:16;;;;;;;6.35;2.70;;;;;;;;;;5070490;28;20028;-82
2022/12/27 00:22:41;;;;;;;6.00;2.78;;;;;;;;;;5068499;28;20048;-82
2022/12/27 00:25:07;;;;;;;7.32;2.75;;;;;;;;;;5066487;28;20166;-82
2022/12/27 00:27:33;;;;;;;6.45;2.70;;;;;;;;;;5068293;28;20128;-82
2022/12/27 00:29:58;;;;;;;7.63;2.75;;;;;;;;;;5068770;28;20159;-82
2022/12/27 00:32:23;;;;;;;7.40;2.67;;;;;;;;;;5065731;28;20028;-82
2022/12/27 00:34:49;;;;;;;7.32;2.40;;;;;;;;;;5068507;28;20021;-79
2022/12/27 00:37:14;;;;;;;6.65;2.55;;;;;;;;;;5071641;28;20029;-82
2022/12/27 00:39:40;;;;;;;7.13;2.65;;;;;;;;;;5072730;28;20067;-82
2022/12/27 00:42:05;;;;;;;7.40;2.90;;;;;;;;;;5071867;28;20029;-82
2022/12/27 00:44:30;;;;;;;7.43;2.95;;;;;;;;;;5069131;28;20029;-82
2022/12/27 00:46:56;;;;;;;9.27;3.30;;;;;;;;;;5070523;28;20090;-79
2022/12/27 00:49:21;;;;;;;7.78;3.13;;;;;;;;;;5070092;28;20035;-82
2022/12/27 00:51:46;;;;;;;10.50;3.63;;;;;;;;;;5072695;28;20032;-81
2022/12/27 00:54:12;;;;;;;8.10;2.80;;;;;;;;;;5071718;28;20366;-82
2022/12/27 00:56:37;;;;;;;5.72;2.67;;;;;;;;;;5073011;28;20030;-82
2022/12/27 00:59:03;;;;;;;9.00;3.15;;;;;;;;;;5070864;28;20028;-82
2022/12/27 01:01:32;;;;;;;6.90;3.13;;;;;;;;;;5067888;28;20031;-82
2022/12/27 01:03:57;;;;;;;9.00;2.92;;;;;;;;;;5064407;28;20476;-82
2022/12/27 01:06:27;;;;;;;11.75;3.50;;;;;;;;;;5068845;28;20024;-82
2022/12/27 01:08:53;;;;;;;8.25;3.05;;;;;;;;;;5068290;28;20029;-81
2022/12/27 01:11:18;;;;;;;7.15;3.13;;;;;;;;;;5061593;28;20031;-82
2022/12/27 01:13:45;;;;;;;6.50;3.13;;;;;;;;;;5061245;28;20024;-82
2022/12/27 01:16:16;;;;;;;8.38;3.17;;;;;;;;;;5067497;28;20111;-82
2022/12/27 01:18:42;;;;;;;6.32;3.00;;;;;;;;;;5067382;28;20078;-82
2022/12/27 01:21:10;;;;;;;7.57;3.00;;;;;;;;;;5068153;28;20431;-81
2022/12/27 01:23:36;;;;;;;8.45;3.15;;;;;;;;;;5066583;28;20476;-80
2022/12/27 01:26:04;;;;;;;6.82;3.08;;;;;;;;;;5062069;28;20028;-81
2022/12/27 01:28:30;;;;;;;9.02;3.03;;;;;;;;;;5063919;28;20060;-82
2022/12/27 01:30:55;;;;;;;6.35;2.88;;;;;;;;;;5064468;28;20033;-81
2022/12/27 01:33:21;;;;;;;5.57;3.03;;;;;;;;;;5072453;28;20041;-81
2022/12/27 01:35:47;;;;;;;6.30;3.15;;;;;;;;;;5068436;28;20376;-82
2022/12/27 01:38:13;;;;;;;8.98;3.30;;;;;;;;;;5068181;28;20024;-82
2022/12/27 01:40:38;;;;;;;8.43;3.13;;;;;;;;;;5066160;28;20067;-82
2022/12/27 01:43:03;;;;;;;6.32;3.47;;;;;;;;;;5063451;28;20497;-82
2022/12/27 01:45:33;;;;;;;5.63;3.08;;;;;;;;;;5064881;28;20025;-82
2022/12/27 01:48:23;;;;;;;8.45;3.30;;;;;;;;;;5066585;28;20029;-82
2022/12/27 01:50:55;;;;;;;6.35;3.10;;;;;;;;;;5069876;28;20021;-82
2022/12/27 01:53:33;;;;;;;6.60;2.78;;;;;;;;;;5067065;28;20506;-82
2022/12/27 01:56:03;;;;;;;8.65;3.00;;;;;;;;;;5065470;28;20074;-82
2022/12/27 01:58:40;;;;;;;7.50;2.78;;;;;;;;;;5066222;28;20047;-82
2022/12/27 02:01:11;;;;;;;6.88;3.20;;;;;;;;;;5064559;28;20028;-82
2022/12/27 02:03:55;;;;;;;8.25;3.05;;;;;;;;;;5060968;28;20436;-82
2022/12/27 02:06:22;;;;;;;8.02;2.83;;;;;;;;;;5064719;28;20024;-81
2022/12/27 02:08:56;;;;;;;5.05;2.58;;;;;;;;;;5066160;28;20142;-82
2022/12/27 02:14:13;;;;;;;5.82;3.20;;;;;;;;;;5068589;28;20039;-81
2022/12/27 02:16:39;;;;;;;5.35;2.83;;;;;;;;;;5065749;28;20043;-81
2022/12/27 02:19:31;;;;;;;5.45;2.60;;;;;;;;;;5064552;28;20408;-81
2022/12/27 02:22:27;;;;;;;7.53;2.88;;;;;;;;;;5061350;28;20036;-81
2022/12/27 02:24:58;;;;;;;8.25;3.00;;;;;;;;;;5067667;28;20047;-81
2022/12/27 02:27:36;;;;;;;8.88;3.00;;;;;;;;;;5063978;28;20052;-81
2022/12/27 02:30:07;;;;;;;6.53;2.67;;;;;;;;;;5063458;28;20036;-82
2022/12/27 02:32:46;;;;;;;6.80;3.25;;;;;;;;;;5068140;28;20028;-81
2022/12/27 02:35:23;;;;;;;5.00;2.50;;;;;;;;;;5066691;28;20039;-81
2022/12/27 02:38:01;;;;;;;9.18;2.95;;;;;;;;;;5063152;28;20480;-81
2022/12/27 02:55:14;;;;;;;6.35;2.83;;;;;;;;;;5063932;28;19970;-81
2022/12/27 02:57:48;;;;;;;5.32;2.40;;;;;;;;;;5068137;28;20085;-81
2022/12/27 03:03:30;;;;;;;5.13;2.63;;;;;;;;;;5061310;28;20063;-81
2022/12/27 03:06:38;;;;;;;6.00;2.75;;;;;;;;;;5063421;28;20504;-81
2022/12/27 03:18:17;;;;;;;9.35;3.03;;;;;;;;;;5060319;28;20454;-81
2022/12/27 03:26:16;;;;;;;7.68;2.80;;;;;;;;;;5057831;28;20499;-80
2022/12/27 03:34:34;;;;;;;6.95;2.67;;;;;;;;;;5059854;28;20504;-81
2022/12/27 03:40:10;;;;;;;4.70;2.40;;;;;;;;;;5064482;28;20032;-81
2022/12/27 03:48:37;;;;;;;4.68;2.30;;;;;;;;;;5064761;28;20141;-81
2022/12/27 03:51:04;;;;;;;8.50;2.80;;;;;;;;;;5066242;28;20024;-82
2022/12/27 03:53:38;;;;;;;7.57;2.30;;;;;;;;;;5058472;28;20024;-81
2022/12/27 03:56:05;;;;;;;6.40;2.40;;;;;;;;;;5063357;28;20473;-80
2022/12/27 03:58:31;;;;;;;7.80;2.88;;;;;;;;;;5059673;28;20028;-81
2022/12/27 04:00:56;;;;;;;6.95;2.30;;;;;;;;;;5062775;28;20280;-81
2022/12/27 04:03:22;;;;;;;7.53;2.65;;;;;;;;;;5066965;28;20424;-81
2022/12/27 04:05:47;;;;;;;10.80;2.42;;;;;;;;;;5067073;28;20392;-81
2022/12/27 04:35:33;;;;;;;4.65;1.98;;;;;;;;;;5067425;28;20043;-81
2022/12/27 04:37:58;;;;;;;4.72;2.40;;;;;;;;;;5066104;28;20612;-79
2022/12/27 04:57:01;;;;;;;7.35;2.20;;;;;;;;;;5062113;28;20423;-81
2022/12/27 05:02:10;;;;;;;5.93;1.83;;;;;;;;;;5063808;28;20031;-81
2022/12/27 05:04:37;;;;;;;5.10;1.90;;;;;;;;;;5068843;28;20025;-82
2022/12/27 05:15:17;;;;;;;6.30;1.85;;;;;;;;;;5076972;28;20047;-81
2022/12/27 05:17:43;;;;;;;4.63;1.92;;;;;;;;;;5069525;28;20028;-81
2022/12/27 05:20:09;;;;;;;5.60;1.80;;;;;;;;;;5067777;28;20077;-81
2022/12/27 05:25:33;;;;;;;9.30;2.03;;;;;;;;;;5071038;28;20047;-82
2022/12/27 05:27:59;;;;;;;4.15;1.50;;;;;;;;;;5064960;28;20041;-81
2022/12/27 05:30:25;;;;;;;3.67;1.65;;;;;;;;;;5071320;28;20036;-82
2022/12/27 05:32:54;;;;;;;4.72;1.52;;;;;;;;;;5062912;28;20669;-81
2022/12/27 05:35:19;;;;;;;5.82;1.60;;;;;;;;;;5070917;28;20497;-82
2022/12/27 05:37:45;;;;;;;3.92;1.63;;;;;;;;;;5070728;28;20043;-81
2022/12/27 05:40:11;;;;;;;3.13;1.45;;;;;;;;;;5069763;28;20042;-82
2022/12/27 05:42:36;;;;;;;4.88;1.75;;;;;;;;;;5067839;28;20392;-82
2022/12/27 05:45:02;;;;;;;5.20;1.80;;;;;;;;;;5069110;28;20021;-82
2022/12/27 05:47:27;;;;;;;6.70;1.73;;;;;;;;;;5070104;28;20439;-81
2022/12/27 05:49:52;;;;;;;5.20;1.98;;;;;;;;;;5065734;28;20044;-82
2022/12/27 05:52:18;;;;;;;3.60;1.80;;;;;;;;;;5066319;28;20036;-81
2022/12/27 05:54:44;;;;;;;4.50;1.80;;;;;;;;;;5067627;28;20035;-81
2022/12/27 05:57:09;;;;;;;5.43;1.92;;;;;;;;;;5068575;28;20067;-81
2022/12/27 05:59:34;;;;;;;6.43;2.30;;;;;;;;;;5066897;28;20040;-82
2022/12/27 06:02:00;;;;;;;5.22;2.08;;;;;;;;;;5065528;28;20036;-82
2022/12/27 06:04:26;;;;;;;5.22;2.22;;;;;;;;;;5067942;28;20119;-81
2022/12/27 06:06:51;;;;;;;7.10;2.13;;;;;;;;;;5072356;28;20029;-82
2022/12/27 06:09:17;;;;;;;7.97;2.22;;;;;;;;;;5069355;28;20020;-81
2022/12/27 06:11:42;;;;;;;10.05;2.28;;;;;;;;;;5071346;28;20389;-82
2022/12/27 06:14:07;;;;;;;5.32;2.17;;;;;;;;;;5071426;28;20017;-82
2022/12/27 06:16:33;;;;;;;5.97;2.00;;;;;;;;;;5065979;28;20112;-79
2022/12/27 06:18:58;;;;;;;5.20;1.90;;;;;;;;;;5067106;28;20028;-81
2022/12/27 06:21:23;;;;;;;5.28;1.60;;;;;;;;;;5065303;28;20020;-82
2022/12/27 06:23:49;;;;;;;8.23;1.95;;;;;;;;;;5066294;28;20654;-82
2022/12/27 06:26:21;;;;;;;4.80;1.90;;;;;;;;;;5064606;28;20025;-81
2022/12/27 06:28:48;;;;;;;8.55;1.92;;;;;;;;;;5066322;28;20476;-82
2022/12/27 06:31:14;;;;;;;5.32;1.90;;;;;;;;;;5062977;28;20112;-81
2022/12/27 06:33:40;;;;;;;3.22;1.50;;;;;;;;;;5069027;28;20028;-82
2022/12/27 06:36:07;;;;;;;5.30;1.75;;;;;;;;;;5067684;28;20024;-82
2022/12/27 06:38:32;;;;;;;4.18;1.70;;;;;;;;;;5070245;28;20499;-81
2022/12/27 06:41:02;;;;;;;5.82;2.10;;;;;;;;;;5065819;28;20016;-82
2022/12/27 06:43:28;;;;;;;6.22;2.28;;;;;;;;;;5068376;28;20480;-81
2022/12/27 06:45:58;;;;;;;4.75;1.80;;;;;;;;;;5065631;28;20020;-81
2022/12/27 06:48:23;;;;;;;3.88;1.70;;;;;;;;;;5064676;28;20441;-79
2022/12/27 06:50:48;;;;;;;4.60;1.75;;;;;;;;;;5067200;28;20082;-82
2022/12/27 06:53:14;;;;;;;5.35;2.15;;;;;;;;;;5064208;28;20059;-82
2022/12/27 06:55:39;;;;;;;5.70;2.25;;;;;;;;;;5067532;28;20048;-82
2022/12/27 06:58:04;;;;;;;5.97;2.40;;;;;;;;;;5069526;28;20480;-81
2022/12/27 07:00:30;;;;;;;3.88;2.15;;;;;;;;;;5061559;28;20365;-82
2022/12/27 07:02:55;;;;;;;8.25;2.45;;;;;;;;;;5061631;28;20094;-82
2022/12/27 07:05:20;;;;;;;5.60;2.75;;;;;;;;;;5068180;28;20043;-82
2022/12/27 07:07:46;;;;;;;5.57;2.63;;;;;;;;;;5063895;28;20052;-82
2022/12/27 07:10:11;;;;;;;7.72;3.03;;;;;;;;;;5065240;28;20026;-82
2022/12/27 07:12:37;;;;;;;6.10;2.45;;;;;;;;;;5067486;28;20039;-81
2022/12/27 07:15:07;;;;;;;10.38;3.05;;;;;;;;;;5058996;28;20028;-82
2022/12/27 07:17:36;;;;;;;9.15;2.88;;;;;;;;;;5066504;28;20035;-82
2022/12/27 07:20:03;;;;;;;8.50;3.22;;;;;;;;;;5064329;28;20028;-82
2022/12/27 07:22:28;;;;;;;6.70;2.67;;;;;;;;;;5062377;28;20070;-82
2022/12/27 07:24:54;;;;;;;7.00;2.67;;;;;;;;;;5057679;28;20032;-82
2022/12/27 07:27:19;;;;;;;7.63;2.80;;;;;;;;;;5062679;28;20044;-82
2022/12/27 07:29:44;;;;;;;6.65;2.72;;;;;;;;;;5065784;28;20036;-82
2022/12/27 07:32:10;;;;;;;6.93;2.40;;;;;;;;;;5064625;28;20111;-81
2022/12/27 07:34:35;;;;;;;3.92;2.15;;;;;;;;;;5065894;28;20031;-80
2022/12/27 07:37:00;;;;;;;6.03;2.33;;;;;;;;;;5071925;28;20033;-80
2022/12/27 07:39:26;;;;;;;6.75;3.05;;;;;;;;;;5069359;28;20020;-81
2022/12/27 07:41:51;;;;;;;4.80;2.50;;;;;;;;;;5058174;28;20051;-81
2022/12/27 07:44:17;;;;;;;5.40;2.50;;;;;;;;;;5061697;28;20507;-80
2022/12/27 07:46:42;;;;;;;5.13;2.78;;;;;;;;;;5070713;28;20020;-81
2022/12/27 07:49:09;;;;;;;7.10;2.70;;;;;;;;;;5065874;28;20389;-77
2022/12/27 07:51:34;;;;;;;6.28;2.55;;;;;;;;;;5059337;28;20112;-78
2022/12/27 07:53:59;;;;;;;9.25;3.08;;;;;;;;;;5059192;28;20778;-80
2022/12/27 07:56:26;;;;;;;5.72;2.42;;;;;;;;;;5062353;28;20043;-80
2022/12/27 07:58:54;;;;;;;10.68;3.17;;;;;;;;;;5060102;28;20027;-80
2022/12/27 08:01:20;;;;;;;5.35;2.90;;;;;;;;;;5061369;28;20025;-81
2022/12/27 08:03:46;;;;;;;6.47;2.75;;;;;;;;;;5068116;28;21337;-80
2022/12/27 08:06:21;;;;;;;5.68;2.42;;;;;;;;;;5059522;28;20112;-80
2022/12/27 08:08:46;;;;;;;6.80;2.35;;;;;;;;;;5062443;28;20107;-81
2022/12/27 08:11:12;;;;;;;6.07;2.53;;;;;;;;;;5059276;28;20175;-77
2022/12/27 08:13:40;;;;;;;6.70;2.65;;;;;;;;;;5061978;28;20472;-80
2022/12/27 08:16:06;;;;;;;5.32;2.53;;;;;;;;;;5055735;28;20032;-80
2022/12/27 08:18:32;;;;;;;5.65;2.67;;;;;;;;;;5062206;28;20094;-81
2022/12/27 08:20:57;;;;;;;5.13;2.20;;;;;;;;;;5068148;28;20079;-79
2022/12/27 08:23:22;;;;;;;6.90;2.25;;;;;;;;;;5061647;28;20031;-80
2022/12/27 08:25:50;;;;;;;5.65;2.55;;;;;;;;;;5070839;28;20545;-81
2022/12/27 08:28:17;;;;;;;7.05;2.83;;;;;;;;;;5064649;28;20041;-80
2022/12/27 08:30:43;;;;;;;5.70;2.92;;;;;;;;;;5063023;28;20028;-81
2022/12/27 08:33:10;;;;;;;8.45;2.90;;;;;;;;;;5066862;28;20440;-80
2022/12/27 08:35:44;;;;;;;9.07;3.25;;;;;;;;;;5060583;28;20094;-79
2022/12/27 08:38:09;;;;;;;12.07;3.30;;;;;;;;;;5060935;28;20518;-77
2022/12/27 08:40:39;;;;;;;7.25;2.78;;;;;;;;;;5058273;28;20036;-80
2022/12/27 08:43:05;;;;;;;8.38;2.75;;;;;;;;;;5063165;28;20036;-80
2022/12/27 08:45:30;;;;;;;8.00;2.63;;;;;;;;;;5066826;28;20040;-80
2022/12/27 08:47:59;;;;;;;10.43;3.55;;;;;;;;;;5069820;28;20028;-80
2022/12/27 08:50:26;;;;;;;5.32;2.45;;;;;;;;;;5064683;28;20032;-79
2022/12/27 08:52:51;;;;;;;6.40;2.63;;;;;;;;;;5062409;28;20039;-81
2022/12/27 08:55:17;;;;;;;6.63;2.67;;;;;;;;;;5061456;28;20029;-80
2022/12/27 08:57:42;;;;;;;4.30;2.08;;;;;;;;;;5074714;28;20025;-80
2022/12/27 09:00:08;;;;;;;7.05;2.95;;;;;;;;;;5074297;28;20070;-78
2022/12/27 09:02:33;;;;;;;4.80;2.38;;;;;;;;;;5071557;28;20082;-80
2022/12/27 09:04:59;;;;;;;6.65;2.35;;;;;;;;;;5074203;28;20024;-80
2022/12/27 09:07:24;;;;;;;10.85;3.10;;;;;;;;;;5067668;28;20484;-80
2022/12/27 09:09:50;;;;;;;7.43;3.13;;;;;;;;;;5074596;28;20029;-81
2022/12/27 09:12:15;;;;;;;6.10;2.67;;;;;;;;;;5072999;28;20061;-81
2022/12/27 09:14:40;;;;;;;6.18;2.72;;;;;;;;;;5071522;28;20024;-80
2022/12/27 09:17:08;;;;;;;7.18;3.10;;;;;;;;;;5074301;28;20029;-81
2022/12/27 09:19:33;;;;;;;9.27;3.20;;;;;;;;;;5067951;28;20029;-80
2022/12/27 09:21:59;;;;;;;6.43;3.08;;;;;;;;;;5068527;28;20541;-81
2022/12/27 09:24:24;;;;;;;6.43;3.28;;;;;;;;;;5069405;28;20051;-80
2022/12/27 09:26:49;;;;;;;8.88;3.35;;;;;;;;;;5087733;28;20050;-80
2022/12/27 09:29:15;;;;;;;7.00;3.40;;;;;;;;;;5061742;28;20091;-80
2022/12/27 09:31:40;;;;;;;7.13;3.22;;;;;;;;;;5071943;28;20070;-80
2022/12/27 09:34:06;;;;;;;7.40;3.80;;;;;;;;;;5069682;28;20403;-80
2022/12/27 09:36:31;;;;;;;7.10;3.50;;;;;;;;;;5070131;28;20039;-80
2022/12/27 09:38:57;;;;;;;8.18;4.03;;;;;;;;;;5071818;28;20048;-81
2022/12/27 09:41:44;;;;;;;9.02;4.00;;;;;;;;;;5071370;28;20036;-78
2022/12/27 09:44:15;;;;;;;11.20;3.97;;;;;;;;;;5072323;28;20116;-81
2022/12/27 09:47:10;;;;;;;9.93;4.03;;;;;;;;;;5068101;28;20028;-80
2022/12/27 09:49:40;;;;;;;6.95;3.53;;;;;;;;;;5061268;28;20051;-81
2022/12/27 09:52:13;;;;;;;5.95;3.67;;;;;;;;;;5074113;28;20446;-80
2022/12/27 09:55:15;;;;;;;8.00;3.75;;;;;;;;;;5067587;28;20488;-80
2022/12/27 09:57:43;;;;;;;8.50;3.65;;;;;;;;;;5068378;28;20412;-80
2022/12/27 10:00:18;;;;;;;5.57;3.50;;;;;;;;;;5066198;28;20614;-80
2022/12/27 10:02:44;;;;;;;7.28;3.70;;;;;;;;;;5070667;28;20438;-80
2022/12/27 10:05:32;;;;;;;8.38;4.00;;;;;;;;;;5068941;28;20112;-80
2022/12/27 10:08:35;;;;;;;9.02;4.28;;;;;;;;;;5072006;28;20074;-81
2022/12/27 10:11:35;;;;;;;8.03;4.77;;;;;;;;;;5066855;28;20487;-80
2022/12/27 10:14:14;;;;;;;8.60;4.60;;;;;;;;;;5058446;28;20024;-78
2022/12/27 10:16:50;;;;;;;7.80;4.47;;;;;;;;;;5067331;28;20111;-80
2022/12/27 10:19:24;;;;;;;8.40;4.53;;;;;;;;;;5068481;28;20031;-80
2022/12/27 10:22:09;;;;;;;9.85;4.57;;;;;;;;;;5064621;28;20166;-78
2022/12/27 10:24:40;;;;;;;8.50;4.82;;;;;;;;;;5067448;28;20036;-80
2022/12/27 10:27:14;;;;;;;6.90;4.15;;;;;;;;;;5067564;28;20421;-80
2022/12/27 10:29:40;;;;;;;10.63;4.93;;;;;;;;;;5067353;28;20067;-80
2022/12/27 10:32:10;;;;;;;8.15;4.22;;;;;;;;;;5061130;28;20024;-80
2022/12/27 10:34:35;;;;;;;8.32;4.20;;;;;;;;;;5068304;28;20358;-80
2022/12/27 10:37:01;;;;;;;10.63;4.40;;;;;;;;;;5066978;28;20032;-80
2022/12/27 10:39:29;;;;;;;8.82;4.53;;;;;;;;;;5068225;28;20043;-80
2022/12/27 10:42:20;;;;;;;7.53;3.90;;;;;;;;;;5063984;28;20369;-80
2022/12/27 10:44:45;;;;;;;7.40;4.03;;;;;;;;;;5063707;28;20058;-81
2022/12/27 10:47:12;;;;;;;8.63;3.60;;;;;;;;;;5066027;28;20458;-80
2022/12/27 10:49:38;;;;;;;7.65;3.50;;;;;;;;;;5066922;28;20528;-80
2022/12/27 10:52:17;;;;;;;6.43;3.47;;;;;;;;;;5063319;28;20385;-80
2022/12/27 10:54:53;;;;;;;7.25;3.13;;;;;;;;;;5065367;28;20037;-81
2022/12/27 10:57:29;;;;;;;6.40;3.42;;;;;;;;;;5065092;28;20021;-80
2022/12/27 11:00:18;;;;;;;7.30;2.97;;;;;;;;;;5068823;28;20036;-80
2022/12/27 11:02:53;;;;;;;7.05;2.80;;;;;;;;;;5062086;28;20070;-80
2022/12/27 11:05:21;;;;;;;6.10;2.90;;;;;;;;;;5066093;28;20035;-80
2022/12/27 11:07:47;;;;;;;6.78;2.78;;;;;;;;;;5067319;28;20056;-80
2022/12/27 11:10:19;;;;;;;6.07;2.83;;;;;;;;;;5069675;28;20062;-80
2022/12/27 11:13:01;;;;;;;9.30;3.10;;;;;;;;;;5068329;28;20107;-80
2022/12/27 11:15:30;;;;;;;6.33;2.77;;;;;;;;;;5051577;28;20036;-79
2022/12/27 11:17:59;;;;;;;10.18;3.15;;;;;;;;;;5061425;28;20025;-77
2022/12/27 11:21:02;;;;;;;8.95;3.05;;;;;;;;;;5067454;28;20087;-80
2022/12/27 11:23:36;;;;;;;6.55;2.80;;;;;;;;;;5058659;28;20109;-80
2022/12/27 11:26:05;;;;;;;6.85;2.78;;;;;;;;;;5066357;28;20043;-79
2022/12/27 11:28:51;;;;;;;7.18;2.83;;;;;;;;;;5060889;28;20047;-80
2022/12/27 11:31:24;;;;;;;6.05;2.65;;;;;;;;;;5065567;28;20024;-80
2022/12/27 11:33:51;;;;;;;;;;;;;;;;;;5063184;28;20393;-80
2022/12/27 11:36:31;;;;;;;6.10;2.63;;;;;;;;;;5078370;28;19916;-80
2022/12/27 11:38:59;;;;;;;4.75;2.50;;;;;;;;;;5066683;28;20591;-80
2022/12/27 11:41:43;;;;;;;5.35;2.78;;;;;;;;;;5056041;28;20047;-80
2022/12/27 11:44:22;;;;;;;6.95;2.75;;;;;;;;;;5056154;28;20154;-80
2022/12/27 11:46:57;;;;;;;6.55;2.50;;;;;;;;;;5059763;28;20090;-80
2022/12/27 11:49:30;;;;;;;6.30;2.60;;;;;;;;;;5061193;28;20028;-80
2022/12/27 11:52:09;;;;;;;7.40;2.97;;;;;;;;;;5057865;28;20033;-78
2022/12/27 11:55:02;;;;;;;7.38;2.90;;;;;;;;;;5061665;28;20052;-80
2022/12/27 11:57:41;;;;;;;8.95;3.08;;;;;;;;;;5055063;28;20036;-81
2022/12/27 12:00:23;;;;;;;5.95;2.72;;;;;;;;;;5068560;28;20052;-80
2022/12/27 12:03:01;;;;;;;8.55;2.90;;;;;;;;;;5062103;28;20111;-80
2022/12/27 12:05:55;;;;;;;6.50;2.35;;;;;;;;;;5057371;28;20089;-80
2022/12/27 12:08:53;;;;;;;7.03;2.75;;;;;;;;;;5059697;28;20021;-79
2022/12/27 12:11:28;;;;;;;8.90;2.97;;;;;;;;;;5074353;28;20035;-79
2022/12/27 12:14:24;;;;;;;7.68;3.22;;;;;;;;;;5061507;28;20037;-79
2022/12/27 12:17:08;;;;;;;7.78;2.92;;;;;;;;;;5060860;28;20039;-81
2022/12/27 12:20:02;;;;;;;8.63;2.88;;;;;;;;;;5068192;28;20031;-80
2022/12/27 12:22:38;;;;;;;;;;;;;;;;;;5060668;28;20488;-79
2022/12/27 12:25:33;;;;;;;11.13;2.65;;;;;;;;;;5060676;28;19912;-80
2022/12/27 12:28:18;;;;;;;4.82;2.47;;;;;;;;;;5066814;28;20123;-80
2022/12/27 12:30:58;;;;;;;5.38;2.65;;;;;;;;;;5058585;28;20036;-80
2022/12/27 12:33:49;;;;;;;7.35;2.65;;;;;;;;;;5061463;28;20028;-80
2022/12/27 12:36:18;;;;;;;9.15;2.53;;;;;;;;;;5067608;28;20033;-80
2022/12/27 12:39:19;;;;;;;11.50;3.47;;;;;;;;;;5057259;28;20029;-80
2022/12/27 12:41:47;;;;;;;6.70;2.42;;;;;;;;;;5059682;28;20298;-79
2022/12/27 12:45:10;;;;;;;7.72;2.72;;;;;;;;;;5060057;28;20021;-80
2022/12/27 12:47:57;;;;;;;6.03;2.30;;;;;;;;;;5039345;28;20032;-81
2022/12/27 12:51:08;;;;;;;8.65;2.65;;;;;;;;;;5045329;28;20063;-81
2022/12/27 12:54:00;;;;;;;7.45;2.85;;;;;;;;;;5059367;28;20025;-79
2022/12/27 12:57:02;;;;;;;3.67;2.10;;;;;;;;;;5058166;28;20085;-79
2022/12/27 12:59:52;;;;;;;5.75;2.42;;;;;;;;;;5064248;28;20090;-80
2022/12/27 13:02:56;;;;;;;6.43;2.35;;;;;;;;;;5064222;28;20578;-79
2022/12/27 13:05:49;;;;;;;5.88;2.70;;;;;;;;;;5064438;28;20051;-81
2022/12/27 13:08:51;;;;;;;5.60;2.70;;;;;;;;;;5067056;28;20032;-81
2022/12/27 13:11:26;;;;;;;6.20;2.55;;;;;;;;;;5069660;28;20099;-80
2022/12/27 13:14:29;;;;;;;7.38;2.80;;;;;;;;;;5070611;28;20025;-81
2022/12/27 13:17:05;;;;;;;6.07;2.63;;;;;;;;;;5063968;28;20110;-80
2022/12/27 13:19:39;;;;;;;5.65;2.55;;;;;;;;;;5072665;28;20480;-80
2022/12/27 13:22:31;;;;;;;7.25;3.00;;;;;;;;;;5068587;28;20366;-80
2022/12/27 13:24:56;;;;;;;5.90;2.42;;;;;;;;;;5067626;28;20016;-80
2022/12/27 13:27:40;;;;;;;6.13;2.40;;;;;;;;;;5072465;28;20514;-79
2022/12/27 13:30:19;;;;;;;7.07;2.47;;;;;;;;;;5071983;28;20162;-80
2022/12/27 13:33:08;;;;;;;5.88;2.38;;;;;;;;;;5069166;28;20455;-80
2022/12/27 13:35:49;;;;;;;8.30;2.63;;;;;;;;;;5068607;28;20567;-79
2022/12/27 13:38:42;;;;;;;7.20;2.67;;;;;;;;;;5068978;28;20592;-80
2022/12/27 13:41:42;;;;;;;5.15;2.53;;;;;;;;;;5073457;28;20017;-78
2022/12/27 13:44:30;;;;;;;4.72;2.33;;;;;;;;;;5068675;28;20163;-80
2022/12/27 13:47:13;;;;;;;6.53;2.80;;;;;;;;;;5071248;28;20021;-80
2022/12/27 13:49:51;;;;;;;9.77;2.78;;;;;;;;;;5072448;28;20025;-80
2022/12/27 13:52:32;;;;;;;7.53;2.70;;;;;;;;;;5061631;28;20502;-80
2022/12/27 13:55:32;;;;;;;7.75;2.78;;;;;;;;;;5069299;28;20488;-80
2022/12/27 13:58:07;;;;;;;5.97;2.83;;;;;;;;;;5047018;28;20120;-80
2022/12/27 14:01:14;;;;;;;4.78;2.50;;;;;;;;;;5075656;28;20032;-79
2022/12/27 14:04:19;;;;;;;7.55;2.78;;;;;;;;;;5071702;28;20033;-80
2022/12/27 14:07:04;;;;;;;5.38;2.72;;;;;;;;;;5073175;28;20020;-80
2022/12/27 14:09:58;;;;;;;5.05;2.20;;;;;;;;;;5072145;28;20055;-79
2022/12/27 14:12:51;;;;;;;6.13;2.10;;;;;;;;;;5070330;28;20058;-78
2022/12/27 14:15:37;;;;;;;4.30;2.30;;;;;;;;;;5062950;28;20021;-80
2022/12/27 14:18:34;;;;;;;6.40;2.38;;;;;;;;;;5073971;28;20408;-80
2022/12/27 14:21:18;;;;;;;6.43;2.38;;;;;;;;;;5068612;28;20170;-80
2022/12/27 14:24:11;;;;;;;9.35;2.53;;;;;;;;;;5072109;28;20491;-80
2022/12/27 14:27:18;;;;;;;4.82;2.08;;;;;;;;;;5059971;28;20039;-80
2022/12/27 14:30:21;;;;;;;7.05;2.70;;;;;;;;;;5067675;28;20056;-79
2022/12/27 14:32:53;;;;;;;5.22;2.10;;;;;;;;;;5080087;28;20025;-80
2022/12/27 14:36:00;;;;;;;5.95;2.30;;;;;;;;;;5069611;28;20519;-79
2022/12/27 14:38:42;;;;;;;4.20;2.17;;;;;;;;;;5068739;28;20048;-80
2022/12/27 14:41:35;;;;;;;7.72;2.38;;;;;;;;;;5061643;28;20029;-79
2022/12/27 14:44:38;;;;;;;4.90;2.03;;;;;;;;;;5060168;28;20020;-78
2022/12/27 14:47:41;;;;;;;4.53;2.03;;;;;;;;;;5059916;28;20840;-79
2022/12/27 14:50:59;;;;;;;6.05;2.45;;;;;;;;;;5060695;28;20283;-78
2022/12/27 14:53:59;;;;;;;3.72;1.85;;;;;;;;;;5066035;28;20417;-79
2022/12/27 14:57:07;;;;;;;6.63;2.00;;;;;;;;;;5058183;28;20079;-80
2022/12/27 14:59:59;;;;;;;5.55;2.40;;;;;;;;;;5064041;28;20028;-79
2022/12/27 15:02:33;;;;;;;7.43;2.80;;;;;;;;;;5058137;28;20040;-79
2022/12/27 15:05:10;;;;;;;7.93;2.55;;;;;;;;;;5058597;28;20028;-79
2022/12/27 15:08:08;;;;;;;4.55;2.28;;;;;;;;;;5064544;28;20020;-79
2022/12/27 15:10:55;;;;;;;7.40;2.60;;;;;;;;;;5060126;28;20037;-79
2022/12/27 15:13:42;;;;;;;6.60;2.42;;;;;;;;;;5067083;28;20028;-80
2022/12/27 15:16:15;;;;;;;5.65;2.17;;;;;;;;;;5057622;28;20028;-78
2022/12/27 15:18:53;;;;;;;4.70;2.15;;;;;;;;;;5053996;28;20034;-79
2022/12/27 15:21:27;;;;;;;5.53;2.55;;;;;;;;;;5057223;28;20098;-79
2022/12/27 15:24:00;;;;;;;7.18;2.75;;;;;;;;;;5057545;28;20028;-79
2022/12/27 15:26:49;;;;;;;7.60;2.58;;;;;;;;;;5063607;28;20420;-80
2022/12/27 15:29:36;;;;;;;7.07;2.17;;;;;;;;;;5059427;28;20048;-78
2022/12/27 15:32:23;;;;;;;4.63;2.05;;;;;;;;;;5054746;28;20090;-80
2022/12/27 15:35:14;;;;;;;4.25;1.92;;;;;;;;;;5057615;28;20055;-80
2022/12/27 15:37:46;;;;;;;3.70;1.92;;;;;;;;;;5059981;28;20127;-79
2022/12/27 15:40:33;;;;;;;4.90;2.03;;;;;;;;;;5060177;28;21287;-79
2022/12/27 15:43:27;;;;;;;5.97;2.05;;;;;;;;;;5060657;28;20510;-79
2022/12/27 15:46:10;;;;;;;9.18;2.15;;;;;;;;;;5071554;28;20397;-80
2022/12/27 15:48:54;;;;;;;;;;;;;;;;;;5061113;28;20111;-78
2022/12/27 15:51:49;;;;;;;7.35;1.90;;;;;;;;;;5063717;28;19916;-79
2022/12/27 15:54:17;;;;;;;4.47;2.13;;;;;;;;;;5062116;28;20079;-80
2022/12/27 15:57:07;;;;;;;5.72;2.10;;;;;;;;;;5063383;28;20036;-79
2022/12/27 15:59:46;;;;;;;6.10;2.17;;;;;;;;;;5062006;28;20119;-79
2022/12/27 16:02:32;;;;;;;5.82;2.20;;;;;;;;;;5058198;28;20039;-79
2022/12/27 16:05:18;;;;;;;6.20;2.10;;;;;;;;;;5060150;28;20031;-79
2022/12/27 16:07:44;;;;;;;4.70;1.85;;;;;;;;;;5063914;28;20488;-79
2022/12/27 16:10:32;;;;;;;7.35;2.50;;;;;;;;;;5054174;28;20031;-80
2022/12/27 16:13:03;;;;;;;5.53;2.53;;;;;;;;;;5063280;28;20021;-79
2022/12/27 16:15:36;;;;;;;6.97;2.30;;;;;;;;;;5063296;28;20452;-79
2022/12/27 16:18:03;;;;;;;6.72;2.25;;;;;;;;;;5060887;28;20024;-79
2022/12/27 16:20:30;;;;;;;7.80;2.88;;;;;;;;;;5062984;28;20066;-79
2022/12/27 16:22:57;;;;;;;7.75;2.63;;;;;;;;;;5059493;28;20029;-79
2022/12/27 16:25:29;;;;;;;7.57;2.60;;;;;;;;;;5064310;28;20078;-79
2022/12/27 16:28:18;;;;;;;8.80;3.20;;;;;;;;;;5060447;28;20048;-80
2022/12/27 16:30:48;;;;;;;5.78;2.42;;;;;;;;;;5057199;28;20078;-79
2022/12/27 16:33:26;;;;;;;7.50;2.80;;;;;;;;;;5062656;28;20381;-78
2022/12/27 16:36:10;;;;;;;6.60;2.78;;;;;;;;;;5063627;28;20449;-79
2022/12/27 16:38:38;;;;;;;6.97;2.55;;;;;;;;;;5059986;28;20029;-79
2022/12/27 16:41:24;;;;;;;9.60;2.45;;;;;;;;;;5055361;28;20032;-77
2022/12/27 16:43:58;;;;;;;6.65;2.40;;;;;;;;;;5055419;28;20029;-82
2022/12/27 16:46:55;;;;;;;7.82;2.58;;;;;;;;;;5066891;28;20040;-79
2022/12/27 16:49:50;;;;;;;6.60;2.78;;;;;;;;;;5060980;28;20120;-79
2022/12/27 16:52:26;;;;;;;7.20;2.53;;;;;;;;;;5064839;28;20091;-77
2022/12/27 16:55:18;;;;;;;7.93;2.63;;;;;;;;;;5062403;28;20029;-79
2022/12/27 16:57:46;;;;;;;5.35;2.40;;;;;;;;;;5064406;28;20043;-79
2022/12/27 17:00:39;;;;;;;6.93;2.35;;;;;;;;;;5062592;28;20033;-79
2022/12/27 17:03:35;;;;;;;7.35;2.60;;;;;;;;;;5061603;28;20024;-78
2022/12/27 17:06:22;;;;;;;7.25;2.75;;;;;;;;;;5071214;28;20043;-80
2022/12/27 17:09:07;;;;;;;7.00;2.30;;;;;;;;;;5070216;28;20028;-80
2022/12/27 17:11:40;;;;;;;6.07;2.50;;;;;;;;;;5068979;28;20120;-80
2022/12/27 17:14:19;;;;;;;8.05;2.58;;;;;;;;;;5063953;28;20056;-79
2022/12/27 17:16:48;;;;;;;8.63;2.50;;;;;;;;;;5073181;28;20067;-78